createdAt,value
2022-10-25T00:01:59.974Z,12.66
2022-10-25T00:04:57.524Z,12.66
2022-10-25T00:07:54.993Z,12.65
2022-10-25T00:10:52.423Z,12.64
2022-10-25T00:13:50.121Z,12.65
2022-10-25T00:16:47.582Z,12.64
2022-10-25T00:19:45.056Z,12.64
2022-10-25T00:22:42.487Z,12.63
2022-10-25T00:25:39.933Z,12.62
2022-10-25T00:28:37.370Z,12.62
2022-10-25T00:31:34.798Z,12.60
2022-10-25T00:34:32.250Z,12.60
2022-10-25T00:37:29.674Z,12.60
2022-10-25T00:40:27.094Z,12.60
2022-10-25T00:43:24.538Z,12.58
2022-10-25T00:46:23.343Z,12.58
2022-10-25T00:49:21.482Z,12.57
2022-10-25T00:52:19.020Z,12.55
2022-10-25T00:55:16.466Z,12.54
2022-10-25T00:58:13.900Z,12.52
2022-10-25T01:01:11.428Z,12.51
2022-10-25T01:04:08.888Z,12.51
2022-10-25T01:07:06.313Z,12.50
2022-10-25T01:10:03.753Z,12.49
2022-10-25T01:13:01.305Z,12.48
2022-10-25T01:15:58.730Z,12.48
2022-10-25T01:18:56.528Z,12.48
2022-10-25T01:21:53.973Z,12.49
2022-10-25T01:24:51.414Z,12.48
2022-10-25T01:27:48.896Z,12.50
2022-10-25T01:30:46.393Z,12.52
2022-10-25T01:33:43.840Z,12.55
2022-10-25T01:36:41.291Z,12.57
2022-10-25T01:39:42.819Z,12.61
2022-10-25T01:42:44.028Z,12.64
2022-10-25T01:45:44.896Z,12.69
2022-10-25T01:48:45.854Z,12.73
2022-10-25T01:51:46.781Z,12.77
2022-10-25T01:54:52.098Z,12.79
2022-10-25T01:57:53.036Z,12.81
2022-10-25T02:00:54.033Z,12.82
2022-10-25T02:03:55.106Z,12.84
2022-10-25T02:06:55.960Z,12.84
2022-10-25T02:09:57.065Z,12.85
2022-10-25T02:12:57.722Z,12.85
2022-10-25T02:15:58.153Z,12.85
2022-10-25T02:18:55.608Z,12.86
2022-10-25T02:21:53.091Z,12.86
2022-10-25T02:24:54.186Z,12.87
2022-10-25T02:27:55.237Z,12.88
2022-10-25T02:30:56.329Z,12.89
2022-10-25T02:33:57.153Z,12.91
2022-10-25T02:36:58.028Z,12.92
2022-10-25T02:39:59.009Z,12.95
2022-10-25T02:43:00.101Z,12.97
2022-10-25T02:46:01.199Z,13.00
2022-10-25T02:49:02.248Z,13.02
2022-10-25T02:52:02.681Z,13.06
2022-10-25T02:55:03.749Z,13.08
2022-10-25T02:58:04.781Z,13.10
2022-10-25T03:01:05.680Z,13.13
2022-10-25T03:04:06.679Z,13.16
2022-10-25T03:07:07.484Z,13.20
2022-10-25T03:10:08.509Z,13.22
2022-10-25T03:13:09.603Z,13.24
2022-10-25T03:16:10.668Z,13.26
2022-10-25T03:19:08.113Z,13.29
2022-10-25T03:22:09.080Z,13.31
2022-10-25T03:28:10.376Z,13.34
2022-10-25T03:31:11.172Z,13.37
2022-10-25T03:34:12.157Z,13.38
2022-10-25T03:37:13.060Z,13.40
2022-10-25T03:40:15.829Z,13.41
2022-10-25T03:43:16.629Z,13.42
2022-10-25T03:46:16.917Z,13.44
2022-10-25T03:49:17.466Z,13.45
2022-10-25T03:52:18.325Z,13.45
2022-10-25T03:55:19.111Z,13.44
2022-10-25T03:58:19.781Z,13.44
2022-10-25T04:01:20.678Z,13.44
2022-10-25T04:04:21.692Z,13.46
2022-10-25T04:07:22.475Z,13.46
2022-10-25T04:10:25.183Z,13.46
2022-10-25T04:13:26.497Z,13.45
2022-10-25T04:16:27.334Z,13.44
2022-10-25T04:19:27.981Z,13.45
2022-10-25T04:22:30.936Z,13.44
2022-10-25T04:25:31.813Z,13.44
2022-10-25T04:28:32.711Z,13.44
2022-10-25T04:31:33.814Z,13.46
2022-10-25T04:34:34.972Z,13.47
2022-10-25T04:37:36.025Z,13.49
2022-10-25T04:40:37.017Z,13.54
2022-10-25T04:43:38.081Z,13.60
2022-10-25T04:46:38.951Z,13.65
2022-10-25T04:49:39.793Z,13.69
2022-10-25T04:52:40.714Z,13.73
2022-10-25T04:55:41.537Z,13.77
2022-10-25T04:58:42.522Z,13.81
2022-10-25T05:01:43.629Z,13.85
2022-10-25T05:04:44.385Z,13.88
2022-10-25T05:07:45.190Z,13.94
2022-10-25T05:10:45.625Z,13.99
2022-10-25T05:13:46.653Z,14.05
2022-10-25T05:16:47.700Z,14.08
2022-10-25T05:19:47.926Z,14.11
2022-10-25T05:22:48.869Z,14.13
2022-10-25T05:25:49.848Z,14.15
2022-10-25T05:28:50.776Z,14.17
2022-10-25T05:31:51.751Z,14.19
2022-10-25T05:34:52.545Z,14.20
2022-10-25T05:37:53.130Z,14.21
2022-10-25T05:40:54.250Z,14.21
2022-10-25T05:43:55.071Z,14.21
2022-10-25T05:46:57.137Z,14.20
2022-10-25T05:49:58.122Z,14.18
2022-10-25T05:52:59.092Z,14.16
2022-10-25T05:56:00.124Z,14.15
2022-10-25T05:59:06.461Z,14.14
2022-10-25T06:02:07.383Z,14.15
2022-10-25T06:05:08.221Z,14.17
2022-10-25T06:08:09.124Z,14.20
2022-10-25T06:11:10.152Z,14.23
2022-10-25T06:14:11.026Z,14.27
2022-10-25T06:17:11.811Z,14.30
2022-10-25T06:20:12.716Z,14.34
2022-10-25T06:23:13.578Z,14.39
2022-10-25T06:26:14.982Z,14.45
2022-10-25T06:29:15.980Z,14.52
2022-10-25T06:32:13.432Z,14.57
2022-10-25T06:35:10.893Z,14.63
2022-10-25T06:38:08.322Z,14.68
2022-10-25T06:41:05.782Z,14.73
2022-10-25T06:44:06.493Z,14.79
2022-10-25T06:47:16.930Z,14.83
2022-10-25T06:50:15.397Z,14.86
2022-10-25T06:53:12.825Z,14.90
2022-10-25T06:56:14.184Z,14.96
2022-10-25T06:59:12.289Z,15.06
2022-10-25T07:02:09.917Z,15.17
2022-10-25T07:05:07.532Z,15.29
2022-10-25T07:08:04.977Z,15.39
2022-10-25T07:11:02.442Z,15.47
2022-10-25T07:13:59.874Z,15.57
2022-10-25T07:16:57.309Z,15.68
2022-10-25T07:19:54.746Z,15.79
2022-10-25T07:22:53.750Z,15.86
2022-10-25T07:25:54.028Z,15.90
2022-10-25T07:28:51.478Z,15.95
2022-10-25T07:31:48.908Z,16.02
2022-10-25T07:34:49.889Z,16.11
2022-10-25T07:37:50.626Z,16.23
2022-10-25T07:40:51.584Z,16.33
2022-10-25T07:43:52.428Z,16.40
2022-10-25T07:46:53.841Z,16.44
2022-10-25T07:49:54.345Z,16.45
2022-10-25T07:52:56.836Z,16.45
2022-10-25T07:56:00.772Z,16.42
2022-10-25T07:59:01.869Z,16.40
2022-10-25T08:02:02.752Z,16.38
2022-10-25T08:05:03.838Z,16.36
2022-10-25T08:08:06.963Z,16.36
2022-10-25T08:11:10.151Z,16.37
2022-10-25T08:14:07.604Z,16.40
2022-10-25T08:17:09.653Z,16.44
2022-10-25T08:20:10.706Z,16.52
2022-10-25T08:23:10.944Z,16.59
2022-10-25T08:26:12.055Z,16.65
2022-10-25T08:29:12.763Z,16.74
2022-10-25T08:32:13.556Z,16.80
2022-10-25T08:35:14.257Z,16.86
2022-10-25T08:38:15.139Z,16.91
2022-10-25T08:41:17.540Z,16.95
2022-10-25T08:44:18.524Z,17.00
2022-10-25T08:58:47.784Z,17.28
2022-10-25T09:01:11.805Z,17.37
2022-10-25T09:04:13.428Z,17.43
2022-10-25T09:07:13.017Z,17.49
2022-10-25T09:10:13.204Z,17.55
2022-10-25T09:13:13.119Z,17.62
2022-10-25T09:16:12.630Z,17.69
2022-10-25T09:19:11.986Z,17.77
2022-10-25T09:22:11.068Z,17.85
2022-10-25T09:25:10.334Z,17.94
2022-10-25T09:28:09.832Z,18.03
2022-10-25T09:31:14.160Z,18.12
2022-10-25T09:34:13.699Z,18.21
2022-10-25T09:37:12.865Z,18.37
2022-10-25T09:40:12.256Z,18.63
2022-10-25T09:43:15.587Z,19.03
2022-10-25T09:46:15.070Z,19.62
2022-10-25T09:49:14.265Z,20.43
2022-10-25T09:52:13.338Z,21.29
2022-10-25T09:55:12.868Z,22.10
2022-10-25T09:58:12.163Z,22.81
2022-10-25T10:01:11.264Z,23.78
2022-10-25T10:04:11.433Z,24.62
2022-10-25T10:07:08.934Z,25.31
2022-10-25T10:10:06.507Z,25.71
2022-10-25T10:13:04.023Z,25.99
2022-10-25T10:16:01.489Z,26.21
2022-10-25T10:19:00.992Z,26.33
2022-10-25T10:21:58.591Z,26.34
2022-10-25T10:24:56.106Z,26.37
2022-10-25T10:27:53.548Z,26.33
2022-10-25T10:30:51.090Z,26.22
2022-10-25T10:33:50.143Z,26.04
2022-10-25T10:36:52.945Z,26.00
2022-10-25T10:39:56.310Z,25.99
2022-10-25T10:43:00.041Z,26.01
2022-10-25T10:45:57.620Z,25.95
2022-10-25T10:48:55.108Z,25.94
2022-10-25T10:51:59.622Z,25.99
2022-10-25T10:54:57.189Z,26.07
2022-10-25T10:57:54.667Z,26.16
2022-10-25T11:00:59.052Z,26.31
2022-10-25T11:03:59.969Z,26.58
2022-10-25T11:17:35.097Z,27.34
2022-10-25T11:24:04.736Z,27.84
2022-10-25T11:27:02.253Z,28.03
2022-10-25T11:30:02.268Z,28.20
2022-10-25T11:33:01.739Z,28.26
2022-10-25T11:35:59.929Z,28.31
2022-10-25T11:38:58.357Z,28.47
2022-10-25T11:41:55.825Z,28.66
2022-10-25T11:44:53.296Z,28.74
2022-10-25T11:47:50.724Z,28.68
2022-10-25T11:50:49.425Z,28.54
2022-10-25T11:53:46.884Z,28.35
2022-10-25T11:56:44.321Z,28.01
2022-10-25T11:59:41.789Z,27.48
2022-10-25T12:02:39.269Z,26.95
2022-10-25T12:05:36.840Z,26.38
2022-10-25T12:08:34.312Z,25.83
2022-10-25T12:11:31.884Z,25.27
2022-10-25T12:14:29.326Z,24.75
2022-10-25T12:17:26.775Z,24.31
2022-10-25T12:20:24.376Z,23.90
2022-10-25T12:23:21.884Z,23.52
2022-10-25T12:26:19.338Z,23.19
2022-10-25T12:29:16.768Z,22.91
2022-10-25T12:32:14.218Z,22.70
2022-10-25T12:35:11.671Z,22.49
2022-10-25T12:38:09.398Z,22.31
2022-10-25T12:41:06.973Z,22.14
2022-10-25T12:44:04.565Z,22.01
2022-10-25T12:47:01.989Z,21.91
2022-10-25T12:49:59.400Z,21.79
2022-10-25T12:52:56.845Z,21.68
2022-10-25T12:55:54.323Z,21.55
2022-10-25T12:58:55.141Z,21.43
2022-10-25T13:01:56.617Z,21.34
2022-10-25T13:04:57.716Z,21.25
2022-10-25T13:07:58.366Z,21.15
2022-10-25T13:11:06.255Z,21.06
2022-10-25T13:14:06.943Z,20.96
2022-10-25T13:17:06.732Z,20.87
2022-10-25T13:20:07.830Z,20.81
2022-10-25T13:23:10.679Z,20.74
2022-10-25T13:26:11.364Z,20.67
2022-10-25T13:29:12.089Z,20.58
2022-10-25T13:32:13.367Z,20.51
2022-10-25T13:35:15.006Z,20.46
2022-10-25T13:38:15.984Z,20.42
2022-10-25T13:41:17.045Z,20.37
2022-10-25T13:44:17.279Z,20.33
2022-10-25T13:47:18.056Z,20.32
2022-10-25T13:50:19.013Z,20.30
2022-10-25T13:53:19.826Z,20.28
2022-10-25T13:56:20.527Z,20.25
2022-10-25T13:59:24.537Z,20.22
2022-10-25T14:02:26.046Z,20.19
2022-10-25T14:05:26.562Z,20.16
2022-10-25T14:08:26.264Z,20.13
2022-10-25T14:11:27.438Z,20.09
2022-10-25T14:14:28.362Z,20.04
2022-10-25T14:17:29.266Z,19.98
2022-10-25T14:21:23.651Z,19.89
2022-10-25T14:24:26.854Z,19.80
2022-10-25T14:27:27.895Z,19.72
2022-10-25T14:30:28.450Z,19.66
2022-10-25T14:33:31.070Z,19.59
2022-10-25T14:36:31.308Z,19.53
2022-10-25T14:39:52.348Z,19.46
2022-10-25T14:42:53.343Z,19.39
2022-10-25T14:45:53.727Z,19.31
2022-10-25T14:48:54.465Z,19.23
2022-10-25T14:51:55.665Z,19.15
2022-10-25T14:54:56.652Z,19.07
2022-10-25T14:57:57.312Z,19.00
2022-10-25T15:00:58.530Z,18.93
2022-10-25T15:03:59.213Z,18.85
2022-10-25T15:06:59.836Z,18.77
2022-10-25T15:10:00.618Z,18.70
2022-10-25T15:13:02.365Z,18.63
2022-10-25T15:16:03.064Z,18.55
2022-10-25T15:19:03.665Z,18.49
2022-10-25T15:22:04.604Z,18.40
2022-10-25T15:25:05.653Z,18.31
2022-10-25T15:28:06.587Z,18.20
2022-10-25T15:31:13.506Z,18.11
2022-10-25T15:34:17.263Z,18.03
2022-10-25T15:37:18.355Z,17.95
2022-10-25T15:40:19.389Z,17.86
2022-10-25T15:43:20.404Z,17.77
2022-10-25T15:46:21.244Z,17.67
2022-10-25T15:49:22.214Z,17.57
2022-10-25T15:52:23.012Z,17.50
2022-10-25T15:55:23.275Z,17.42
2022-10-25T15:58:24.180Z,17.34
2022-10-25T16:01:25.372Z,17.25
2022-10-25T16:04:26.409Z,17.17
2022-10-25T16:07:27.515Z,17.09
2022-10-25T16:10:28.989Z,16.99
2022-10-25T16:13:29.883Z,16.89
2022-10-25T16:16:45.857Z,16.79
2022-10-25T16:19:47.114Z,16.70
2022-10-25T16:22:48.758Z,16.62
2022-10-25T16:25:50.083Z,16.54
2022-10-25T16:28:50.746Z,16.45
2022-10-25T16:31:53.140Z,16.41
2022-10-25T16:34:54.225Z,16.37
2022-10-25T16:37:55.226Z,16.34
2022-10-25T16:40:55.767Z,16.30
2022-10-25T16:43:56.846Z,16.26
2022-10-25T16:46:58.443Z,16.23
2022-10-25T16:50:00.132Z,16.17
2022-10-25T16:53:01.276Z,16.12
2022-10-25T16:56:02.689Z,16.08
2022-10-25T16:59:04.114Z,16.04
2022-10-25T17:02:06.895Z,16.01
2022-10-25T17:05:08.448Z,15.98
2022-10-25T17:08:10.452Z,15.94
2022-10-25T17:11:11.398Z,15.92
2022-10-25T17:14:14.445Z,15.88
2022-10-25T17:17:15.424Z,15.82
2022-10-25T17:20:17.138Z,15.76
2022-10-25T17:23:18.499Z,15.68
2022-10-25T17:26:23.780Z,15.59
2022-10-25T17:29:25.154Z,15.48
2022-10-25T17:32:26.585Z,15.36
2022-10-25T17:35:29.726Z,15.27
2022-10-25T17:38:31.273Z,15.18
2022-10-25T17:41:38.880Z,15.09
2022-10-25T17:44:41.047Z,15.01
2022-10-25T17:47:44.686Z,14.92
2022-10-25T17:50:49.244Z,14.84
2022-10-25T17:53:53.216Z,14.77
2022-10-25T17:56:57.776Z,14.68
2022-10-25T17:59:59.028Z,14.59
2022-10-25T18:03:00.615Z,14.47
2022-10-25T18:06:01.191Z,14.37
2022-10-25T18:09:05.650Z,14.29
2022-10-25T18:12:07.260Z,14.21
2022-10-25T18:15:09.142Z,14.13
2022-10-25T18:18:12.048Z,14.04
2022-10-25T18:21:13.147Z,13.95
2022-10-25T18:24:14.375Z,13.88
2022-10-25T18:27:16.229Z,13.80
2022-10-25T18:30:18.034Z,13.73
2022-10-25T18:33:20.708Z,13.66
2022-10-25T18:36:24.515Z,13.61
2022-10-25T18:39:26.170Z,13.57
2022-10-25T18:42:28.280Z,13.53
2022-10-25T18:45:29.474Z,13.51
2022-10-25T18:48:30.849Z,13.47
2022-10-25T18:51:33.651Z,13.42
2022-10-25T18:54:35.077Z,13.35
2022-10-25T18:57:37.497Z,13.29
2022-10-25T19:00:41.106Z,13.23
2022-10-25T19:03:44.516Z,13.18
2022-10-25T19:06:46.331Z,13.14
2022-10-25T19:09:48.281Z,13.10
2022-10-25T19:12:50.072Z,13.07
2022-10-25T19:15:54.301Z,13.04
2022-10-25T19:18:55.705Z,13.02
2022-10-25T19:21:57.156Z,13.01
2022-10-25T19:28:01.287Z,12.98
2022-10-25T19:31:04.956Z,12.95
2022-10-25T19:34:08.387Z,12.94
2022-10-25T19:37:11.243Z,12.92
2022-10-25T19:40:12.746Z,12.91
2022-10-25T19:43:14.957Z,12.90
2022-10-25T19:46:17.323Z,12.91
2022-10-25T19:49:18.521Z,12.90
2022-10-25T19:52:17.000Z,12.89
2022-10-25T19:55:15.705Z,12.89
2022-10-25T19:58:14.905Z,12.89
2022-10-25T20:01:13.234Z,12.90
2022-10-25T20:04:14.020Z,12.90
2022-10-25T20:07:12.503Z,12.90
2022-10-25T20:10:13.685Z,12.90
2022-10-25T20:13:16.436Z,12.90
2022-10-25T20:16:15.401Z,12.90
2022-10-25T20:19:15.953Z,12.90
2022-10-25T20:22:14.209Z,12.91
2022-10-25T20:25:12.643Z,12.90
2022-10-25T20:28:11.614Z,12.90
2022-10-25T20:31:10.623Z,12.90
2022-10-25T20:34:09.301Z,12.90
2022-10-25T20:37:09.731Z,12.90
2022-10-25T20:40:08.059Z,12.91
2022-10-25T20:43:06.798Z,12.91
2022-10-25T20:46:04.870Z,12.92
2022-10-25T20:49:03.491Z,12.92
2022-10-25T20:52:01.889Z,12.91
2022-10-25T20:55:00.594Z,12.91
2022-10-25T20:57:58.423Z,12.90
2022-10-25T21:00:56.702Z,12.91
2022-10-25T21:03:54.539Z,12.91
2022-10-25T21:06:51.998Z,12.91
2022-10-25T21:09:49.704Z,12.91
2022-10-25T21:12:47.257Z,12.91
2022-10-25T21:15:47.930Z,12.88
2022-10-25T21:18:45.408Z,12.85
2022-10-25T21:21:45.586Z,12.80
2022-10-25T21:24:43.077Z,12.75
2022-10-25T21:27:40.566Z,12.68
2022-10-25T21:30:38.210Z,12.62
2022-10-25T21:33:35.639Z,12.55
2022-10-25T21:36:33.123Z,12.45
2022-10-25T21:39:30.575Z,12.38
2022-10-25T21:42:28.130Z,12.30
2022-10-25T21:45:25.868Z,12.22
2022-10-25T21:48:23.374Z,12.15
2022-10-25T21:51:20.856Z,12.08
2022-10-25T21:54:18.294Z,12.01
2022-10-25T21:57:15.743Z,11.96
2022-10-25T22:00:13.203Z,11.91
2022-10-25T22:03:10.662Z,11.84
2022-10-25T22:06:08.113Z,11.78
2022-10-25T22:09:05.580Z,11.70
2022-10-25T22:12:03.164Z,11.64
2022-10-25T22:15:00.710Z,11.57
2022-10-25T22:17:58.145Z,11.48
2022-10-25T22:20:55.591Z,11.40
2022-10-25T22:23:53.121Z,11.34
2022-10-25T22:26:50.561Z,11.26
2022-10-25T22:29:48.010Z,11.19
2022-10-25T22:32:46.015Z,11.12
2022-10-25T22:35:43.626Z,11.07
2022-10-25T22:38:41.083Z,11.03
2022-10-25T22:41:38.553Z,10.99
2022-10-25T22:44:36.071Z,10.95
2022-10-25T22:47:33.536Z,10.90
2022-10-25T22:50:30.984Z,10.85
2022-10-25T22:53:28.988Z,10.82
2022-10-25T22:56:26.469Z,10.79
2022-10-25T22:59:23.939Z,10.77
2022-10-25T23:02:22.108Z,10.73
2022-10-25T23:05:19.609Z,10.71
2022-10-25T23:08:17.077Z,10.68
2022-10-25T23:11:14.641Z,10.64
2022-10-25T23:14:15.153Z,10.60
2022-10-25T23:17:15.082Z,10.57
2022-10-25T23:20:12.520Z,10.55
2022-10-25T23:23:09.988Z,10.51
2022-10-25T23:29:09.838Z,10.46
2022-10-25T23:32:07.462Z,10.43
2022-10-25T23:35:04.980Z,10.41
2022-10-25T23:38:02.554Z,10.39
2022-10-25T23:40:59.970Z,10.37
2022-10-25T23:43:57.447Z,10.35
2022-10-25T23:46:55.152Z,10.32
2022-10-25T23:49:52.628Z,10.29
2022-10-25T23:52:50.343Z,10.25
2022-10-25T23:55:48.201Z,10.22
2022-10-25T23:58:45.670Z,10.18
